Main page
METAR-TAF:

METAR-TAF

Airports :

Ziguinchor Airport

Ziguinchor, Senegal

latitude: 12-33N, longitude: 016-16W, elevation: 26 m

Current weather observation

The report was made 1 hour and 19 minutes ago, at 09:00 UTC
Wind 4 kt from the Northwest
Temperature 23°C
Humidity 89%
Pressure 1014 hPa
Visibility 10 km or more
no clouds below 1500 m and no cumulonimbus

METAR: GOGG 190900Z 32004KT CAVOK 23/21 Q1014

Time: 10:19 (10:19 UTC)


TAF: missing

Weather observations and forecasts of more than 4000 airports (METAR and TAF reports).

The available stations are represented by yellow and red dots on the map.

Hover mouse over dot to see the name of the station.

Then click to see weather observations and forecasts.

To change the map : click on the green buttons with a black cross to zoom in, on the green button with a dash to zoom out, or on the green arrows for adjacent maps.


METAR-TAF: